Time;durP1;ratioP1;P1;durP2;ratioP2;P2;SDS_P1;SDS_P2;PMS_P1;PMS_P2;Temp;Humidity;BMP_temperature;BMP_pressure;BME280_temperature;BME280_humidity;BME280_pressure;Samples;Min_cycle;Max_cycle;Signal;HPM_P1;HPM_P2
2021/09/04 00:00:13;;;;;;;22.80;14.17;;;16.00;99.90;;;;;;5047980;28;20242;-70
2021/09/04 00:02:39;;;;;;;20.00;14.70;;;16.00;99.90;;;;;;5032598;28;20166;-70
2021/09/04 00:05:06;;;;;;;20.63;15.17;;;16.00;99.90;;;;;;5033188;28;20792;-70
2021/09/04 00:07:32;;;;;;;20.63;14.47;;;15.90;99.90;;;;;;5033371;28;20168;-70
2021/09/04 00:09:58;;;;;;;20.80;14.07;;;15.90;99.90;;;;;;5032168;28;20924;-70
2021/09/04 00:12:25;;;;;;;19.13;15.37;;;15.90;99.90;;;;;;5032522;28;20224;-70
2021/09/04 00:14:52;;;;;;;19.57;14.10;;;15.90;99.90;;;;;;5032012;28;20561;-70
2021/09/04 00:17:17;;;;;;;20.50;14.97;;;15.90;99.90;;;;;;5032342;28;20388;-70
2021/09/04 00:19:43;;;;;;;22.30;15.80;;;15.90;99.90;;;;;;5032632;28;20406;-70
2021/09/04 00:22:08;;;;;;;21.00;16.20;;;15.80;99.90;;;;;;5032664;28;20173;-70
2021/09/04 00:24:34;;;;;;;21.90;16.30;;;15.80;99.90;;;;;;5032648;28;20204;-70
2021/09/04 00:26:59;;;;;;;19.20;15.97;;;15.80;99.90;;;;;;5047142;28;20179;-70
2021/09/04 00:29:26;;;;;;;21.17;16.20;;;15.80;99.90;;;;;;5035610;28;20230;-70
2021/09/04 00:31:52;;;;;;;25.13;14.73;;;15.80;99.90;;;;;;5032838;28;20626;-70
2021/09/04 00:34:17;;;;;;;23.70;16.00;;;15.80;99.90;;;;;;5032118;28;20546;-70
2021/09/04 00:36:43;;;;;;;25.27;15.80;;;15.80;99.90;;;;;;5032153;28;20521;-70
2021/09/04 00:39:08;;;;;;;19.77;15.50;;;15.70;99.90;;;;;;5032805;28;20177;-70
2021/09/04 00:41:35;;;;;;;20.50;15.00;;;15.70;99.90;;;;;;5032773;28;20557;-70
2021/09/04 00:44:02;;;;;;;19.83;14.57;;;15.70;99.90;;;;;;5032299;28;20165;-70
2021/09/04 00:46:28;;;;;;;20.53;15.07;;;15.70;99.90;;;;;;5032082;28;20449;-70
2021/09/04 00:48:53;;;;;;;21.30;15.00;;;15.70;99.90;;;;;;5032154;28;20877;-70
2021/09/04 00:51:19;;;;;;;20.67;15.90;;;15.70;99.90;;;;;;5032108;28;20246;-70
2021/09/04 00:53:45;;;;;;;20.03;16.03;;;15.70;99.90;;;;;;5032174;28;20161;-70
2021/09/04 00:56:13;;;;;;;25.20;16.10;;;15.60;99.90;;;;;;5032586;28;20197;-70
2021/09/04 00:58:40;;;;;;;24.87;14.80;;;15.60;99.90;;;;;;5032695;28;20804;-70
2021/09/04 01:01:06;;;;;;;22.20;15.57;;;15.60;99.90;;;;;;5031122;28;20826;-70
2021/09/04 01:03:31;;;;;;;22.30;15.50;;;15.60;99.90;;;;;;5031980;28;20388;-70
2021/09/04 01:05:57;;;;;;;24.60;15.70;;;15.50;99.90;;;;;;5032013;28;20157;-70
2021/09/04 01:08:22;;;;;;;20.47;14.90;;;15.50;99.90;;;;;;5031999;28;20172;-70
2021/09/04 01:10:51;;;;;;;22.70;16.33;;;15.50;99.90;;;;;;5032033;28;20681;-70
2021/09/04 01:13:18;;;;;;;18.37;15.23;;;15.50;99.90;;;;;;5032752;28;20585;-70
2021/09/04 01:15:44;;;;;;;24.80;14.83;;;15.50;99.90;;;;;;5032173;28;20928;-70
2021/09/04 01:18:10;;;;;;;22.57;15.67;;;15.50;99.90;;;;;;5031853;28;20403;-70
2021/09/04 01:20:35;;;;;;;21.00;15.60;;;15.50;99.90;;;;;;5032175;28;20756;-70
2021/09/04 01:23:01;;;;;;;22.57;15.23;;;15.40;99.90;;;;;;5034005;28;20267;-70
2021/09/04 01:25:29;;;;;;;18.17;14.23;;;15.40;99.90;;;;;;5035538;28;20881;-70
2021/09/04 01:27:59;;;;;;;23.03;16.27;;;15.40;99.90;;;;;;5035140;28;20431;-70
2021/09/04 01:30:25;;;;;;;23.33;16.20;;;15.40;99.90;;;;;;5039286;28;20442;-70
2021/09/04 01:32:51;;;;;;;20.57;15.10;;;15.40;99.90;;;;;;5037885;28;21098;-70
2021/09/04 01:35:20;;;;;;;26.20;17.43;;;15.40;99.90;;;;;;5055019;28;20533;-70
2021/09/04 01:37:46;;;;;;;19.37;15.30;;;15.30;99.90;;;;;;5055333;28;20728;-70
2021/09/04 01:40:12;;;;;;;22.53;16.50;;;15.40;99.90;;;;;;5035170;28;20426;-70
2021/09/04 01:42:39;;;;;;;28.23;17.40;;;15.30;99.90;;;;;;5034970;28;20168;-70
2021/09/04 01:45:05;;;;;;;21.17;15.27;;;15.30;99.90;;;;;;5034935;28;20400;-70
2021/09/04 01:47:31;;;;;;;24.80;18.47;;;15.30;99.90;;;;;;5046755;28;20490;-70
2021/09/04 01:49:56;;;;;;;21.27;16.37;;;15.30;99.90;;;;;;5054172;28;20496;-70
2021/09/04 01:52:22;;;;;;;25.33;16.93;;;15.30;99.90;;;;;;5055174;28;20167;-70
2021/09/04 01:54:50;;;;;;;23.37;15.47;;;15.30;99.90;;;;;;5052880;28;20203;-70
2021/09/04 01:57:16;;;;;;;24.60;17.63;;;15.20;99.90;;;;;;5042517;28;20176;-70
2021/09/04 01:59:41;;;;;;;20.77;15.57;;;15.20;99.90;;;;;;5034643;28;20430;-70
2021/09/04 02:02:07;;;;;;;24.70;17.97;;;15.20;99.90;;;;;;5034605;28;20634;-70
2021/09/04 02:04:34;;;;;;;26.37;15.30;;;15.20;99.90;;;;;;5035039;28;20227;-70
2021/09/04 02:07:00;;;;;;;20.30;15.43;;;15.20;99.90;;;;;;5054056;28;20407;-70
2021/09/04 02:09:26;;;;;;;20.80;16.00;;;15.10;99.90;;;;;;5051217;28;20773;-70
2021/09/04 02:11:52;;;;;;;27.23;17.93;;;15.10;99.90;;;;;;5034459;28;20482;-70
2021/09/04 02:14:17;;;;;;;22.80;16.03;;;15.10;99.90;;;;;;5034483;28;20235;-70
2021/09/04 02:16:43;;;;;;;22.10;17.30;;;15.10;99.90;;;;;;5034188;28;20703;-70
2021/09/04 02:19:09;;;;;;;21.73;15.40;;;15.10;99.90;;;;;;5034237;28;20164;-70
2021/09/04 02:21:34;;;;;;;23.43;15.37;;;15.10;99.90;;;;;;5035491;28;20219;-71
2021/09/04 02:24:00;;;;;;;24.67;16.10;;;15.10;99.90;;;;;;5034723;28;20638;-72
2021/09/04 02:26:27;;;;;;;23.63;17.60;;;15.00;99.90;;;;;;5033823;28;20180;-72
2021/09/04 02:28:53;;;;;;;23.27;16.33;;;15.00;99.90;;;;;;5034126;28;20410;-72
2021/09/04 02:31:23;;;;;;;23.93;17.53;;;15.00;99.90;;;;;;5043990;28;20435;-72
2021/09/04 02:33:49;;;;;;;22.57;17.80;;;15.00;99.90;;;;;;5054058;28;20394;-72
2021/09/04 02:36:14;;;;;;;24.13;17.23;;;15.00;99.90;;;;;;5053867;28;20478;-72
2021/09/04 02:38:40;;;;;;;22.63;16.80;;;15.00;99.90;;;;;;5052639;28;20439;-72
2021/09/04 02:41:05;;;;;;;32.67;16.43;;;15.00;99.90;;;;;;5053830;28;20225;-72
2021/09/04 02:43:31;;;;;;;25.43;18.10;;;14.90;99.90;;;;;;5054515;28;20148;-72
2021/09/04 02:45:57;;;;;;;26.77;19.03;;;14.90;99.90;;;;;;5053920;28;20164;-72
2021/09/04 02:48:22;;;;;;;24.80;17.80;;;14.90;99.90;;;;;;5053949;28;20637;-72
2021/09/04 02:50:48;;;;;;;23.33;17.73;;;14.90;99.90;;;;;;5053783;28;20164;-72
2021/09/04 02:53:13;;;;;;;26.93;17.63;;;14.90;99.90;;;;;;5053719;28;20168;-72
2021/09/04 02:55:39;;;;;;;26.73;16.70;;;14.90;99.90;;;;;;5052298;28;20248;-72
2021/09/04 02:58:04;;;;;;;28.37;19.73;;;14.90;99.90;;;;;;5053253;28;20633;-72
2021/09/04 03:00:30;;;;;;;27.60;18.03;;;14.80;99.90;;;;;;5040986;28;20568;-72
2021/09/04 03:02:56;;;;;;;26.33;18.17;;;14.80;99.90;;;;;;5033523;28;20656;-72
2021/09/04 03:05:22;;;;;;;25.90;16.83;;;14.80;99.90;;;;;;5033571;28;20161;-72
2021/09/04 03:07:47;;;;;;;28.37;18.90;;;14.70;99.90;;;;;;5033709;28;20172;-72
2021/09/04 03:10:13;;;;;;;26.00;17.80;;;14.70;99.90;;;;;;5033419;28;20477;-72
2021/09/04 03:12:39;;;;;;;23.17;17.03;;;14.70;99.90;;;;;;5034149;28;20638;-72
2021/09/04 03:15:05;;;;;;;24.90;17.97;;;14.70;99.90;;;;;;5033333;28;20204;-72
2021/09/04 03:17:31;;;;;;;26.20;17.73;;;14.70;99.90;;;;;;5033477;28;20900;-72
2021/09/04 03:19:56;;;;;;;28.43;18.30;;;14.70;99.90;;;;;;5033195;28;20583;-72
2021/09/04 03:22:22;;;;;;;25.00;18.20;;;14.70;99.90;;;;;;5033342;28;20211;-72
2021/09/04 03:24:47;;;;;;;28.87;18.67;;;14.70;99.90;;;;;;5033404;28;20266;-72
2021/09/04 03:27:13;;;;;;;26.63;18.37;;;14.60;99.90;;;;;;5033156;28;20173;-72
2021/09/04 03:29:38;;;;;;;28.10;18.47;;;14.60;99.90;;;;;;5034404;28;20184;-72
2021/09/04 03:32:04;;;;;;;32.30;19.00;;;14.60;99.90;;;;;;5033040;28;20181;-72
2021/09/04 03:34:30;;;;;;;25.70;17.90;;;14.60;99.90;;;;;;5033000;28;20192;-72
2021/09/04 03:36:55;;;;;;;25.47;18.07;;;14.60;99.90;;;;;;5033174;28;20525;-72
2021/09/04 03:39:21;;;;;;;26.40;18.00;;;14.60;99.90;;;;;;5032953;28;20161;-72
2021/09/04 03:41:47;;;;;;;26.53;16.90;;;14.60;99.90;;;;;;5032878;28;20247;-72
2021/09/04 03:44:12;;;;;;;32.97;21.10;;;14.60;99.90;;;;;;5032610;28;20569;-72
2021/09/04 03:46:38;;;;;;;27.50;19.47;;;14.50;99.90;;;;;;5044812;28;20168;-72
2021/09/04 03:49:03;;;;;;;31.33;20.87;;;14.50;99.90;;;;;;5052246;28;20168;-72
2021/09/04 03:51:29;;;;;;;31.40;20.57;;;14.50;99.90;;;;;;5053170;28;20168;-72
2021/09/04 03:53:54;;;;;;;29.40;19.77;;;14.50;99.90;;;;;;5052608;28;20163;-72
2021/09/04 03:56:20;;;;;;;29.00;18.67;;;14.50;99.90;;;;;;5046939;28;20204;-72
2021/09/04 03:58:45;;;;;;;36.43;22.70;;;14.50;99.90;;;;;;5032555;28;20197;-72
2021/09/04 04:01:11;;;;;;;39.10;23.23;;;14.50;99.90;;;;;;5031917;28;20207;-72
2021/09/04 04:03:37;;;;;;;42.10;24.27;;;14.50;99.90;;;;;;5033195;28;20642;-72
2021/09/04 04:06:02;;;;;;;42.47;24.20;;;14.50;99.90;;;;;;5033347;28;20613;-72
2021/09/04 04:08:28;;;;;;;34.40;22.53;;;14.50;99.90;;;;;;5032616;28;20188;-72
2021/09/04 04:11:04;;;;;;;39.40;23.43;;;14.50;99.90;;;;;;5032381;28;20226;-72
2021/09/04 04:13:30;;;;;;;43.00;26.27;;;14.50;99.90;;;;;;5032527;28;20171;-72
2021/09/04 04:15:55;;;;;;;40.70;25.20;;;14.50;99.90;;;;;;5032284;28;20952;-72
2021/09/04 04:18:21;;;;;;;36.70;24.37;;;14.50;99.90;;;;;;5032434;28;20161;-72
2021/09/04 04:20:46;;;;;;;43.20;22.57;;;14.50;99.90;;;;;;5033847;28;20176;-72
2021/09/04 04:23:12;;;;;;;39.47;22.13;;;14.60;99.90;;;;;;5032539;28;20610;-72
2021/09/04 04:25:37;;;;;;;38.40;24.13;;;14.60;99.90;;;;;;5032596;28;20172;-72
2021/09/04 04:28:03;;;;;;;40.00;24.63;;;14.50;99.90;;;;;;5032187;28;20176;-72
2021/09/04 04:30:29;;;;;;;36.40;24.03;;;14.60;99.90;;;;;;5034093;28;20212;-72
2021/09/04 04:32:54;;;;;;;45.43;24.53;;;14.60;99.90;;;;;;5049252;28;20203;-72
2021/09/04 04:35:20;;;;;;;38.30;23.70;;;14.50;99.90;;;;;;5052658;28;20271;-72
2021/09/04 04:37:45;;;;;;;37.70;23.17;;;14.50;99.90;;;;;;5050887;28;20168;-72
2021/09/04 04:40:11;;;;;;;37.17;24.53;;;14.60;99.90;;;;;;5052607;28;20165;-72
2021/09/04 04:42:37;;;;;;;39.40;24.90;;;14.50;99.90;;;;;;5052289;28;20577;-72
2021/09/04 04:45:04;;;;;;;41.20;24.40;;;14.50;99.90;;;;;;5052361;28;20407;-72
2021/09/04 04:47:31;;;;;;;40.20;22.63;;;14.50;99.90;;;;;;5052390;28;20614;-72
2021/09/04 04:49:56;;;;;;;49.73;25.80;;;14.50;99.90;;;;;;5052601;28;20502;-72
2021/09/04 04:52:22;;;;;;;45.33;25.03;;;14.60;99.90;;;;;;5052150;28;20489;-72
2021/09/04 04:54:47;;;;;;;43.67;25.63;;;14.50;99.90;;;;;;5050178;28;20243;-72
2021/09/04 04:57:13;;;;;;;41.63;27.53;;;14.50;99.90;;;;;;5053267;28;20160;-72
2021/09/04 04:59:38;;;;;;;43.63;26.10;;;14.50;99.90;;;;;;5051158;28;20276;-72
2021/09/04 05:02:04;;;;;;;42.47;24.53;;;14.50;99.90;;;;;;5052621;28;20176;-72
2021/09/04 05:04:30;;;;;;;36.80;23.20;;;14.50;99.90;;;;;;5056245;28;20255;-72
2021/09/04 05:06:55;;;;;;;34.27;23.03;;;14.50;99.90;;;;;;5055877;28;20551;-72
2021/09/04 05:09:21;;;;;;;42.90;24.50;;;14.50;99.90;;;;;;5055773;28;20168;-72
2021/09/04 05:11:47;;;;;;;42.70;25.90;;;14.50;99.90;;;;;;5053995;28;20233;-72
2021/09/04 05:14:13;;;;;;;41.10;24.67;;;14.50;99.90;;;;;;5055469;28;20194;-72
2021/09/04 05:16:39;;;;;;;41.73;23.23;;;14.50;99.90;;;;;;5052412;28;20426;-72
2021/09/04 05:19:04;;;;;;;42.73;23.73;;;14.50;99.90;;;;;;5056289;28;20163;-72
2021/09/04 05:21:30;;;;;;;42.77;24.77;;;14.50;99.90;;;;;;5055698;28;20478;-72
2021/09/04 05:23:56;;;;;;;50.40;26.57;;;14.50;99.90;;;;;;5050415;28;20181;-72
2021/09/04 05:26:21;;;;;;;56.20;29.70;;;14.50;99.90;;;;;;5035276;28;20288;-72
2021/09/04 05:28:47;;;;;;;52.40;27.10;;;14.50;99.90;;;;;;5048357;28;20222;-72
2021/09/04 05:31:13;;;;;;;46.07;27.33;;;14.50;99.90;;;;;;5043097;28;20233;-72
2021/09/04 05:33:38;;;;;;;46.00;23.63;;;14.50;99.90;;;;;;5037774;28;20593;-72
2021/09/04 05:36:04;;;;;;;37.97;22.73;;;14.60;99.90;;;;;;5035207;28;20657;-72
2021/09/04 05:38:29;;;;;;;41.80;24.73;;;14.60;99.90;;;;;;5035299;28;20526;-72
2021/09/04 05:40:55;;;;;;;42.00;22.10;;;14.60;99.90;;;;;;5035334;28;20303;-72
2021/09/04 05:43:21;;;;;;;33.00;21.80;;;14.60;99.90;;;;;;5035270;28;20169;-72
2021/09/04 05:45:48;;;;;;;40.50;21.20;;;14.60;99.90;;;;;;5036107;28;20185;-72
2021/09/04 05:48:13;;;;;;;30.47;19.37;;;14.60;99.90;;;;;;5035959;28;20173;-72
2021/09/04 05:50:39;;;;;;;33.60;21.00;;;14.60;99.90;;;;;;5035080;28;20406;-72
2021/09/04 05:53:04;;;;;;;34.40;21.13;;;14.60;99.90;;;;;;5034850;28;20264;-72
2021/09/04 05:55:30;;;;;;;31.70;19.23;;;14.60;99.90;;;;;;5034476;28;20201;-72
2021/09/04 05:57:58;;;;;;;32.70;19.70;;;14.60;99.90;;;;;;5035014;28;20189;-72
2021/09/04 06:00:24;;;;;;;32.50;20.60;;;14.50;99.90;;;;;;5039999;28;20192;-72
2021/09/04 06:02:50;;;;;;;34.97;20.63;;;14.50;99.90;;;;;;5046236;28;21037;-72
2021/09/04 06:05:15;;;;;;;35.13;21.67;;;14.50;99.90;;;;;;5034680;28;20169;-72
2021/09/04 06:07:41;;;;;;;35.77;21.93;;;14.50;99.90;;;;;;5034312;28;20188;-72
2021/09/04 06:10:07;;;;;;;32.70;20.10;;;14.50;99.90;;;;;;5034295;28;20168;-72
2021/09/04 06:12:32;;;;;;;32.50;19.93;;;14.60;99.90;;;;;;5035435;28;20162;-72
2021/09/04 06:14:58;;;;;;;35.70;19.77;;;14.60;99.90;;;;;;5035016;28;20466;-72
2021/09/04 06:17:23;;;;;;;35.47;20.43;;;14.60;99.90;;;;;;5034781;28;20223;-72
2021/09/04 06:19:49;;;;;;;30.50;18.33;;;14.60;99.90;;;;;;5035461;28;20260;-72
2021/09/04 06:22:14;;;;;;;34.50;21.00;;;14.70;99.90;;;;;;5034742;28;20664;-72
2021/09/04 06:24:40;;;;;;;32.83;20.20;;;14.70;99.90;;;;;;5034158;28;20183;-72
2021/09/04 06:27:05;;;;;;;31.20;18.73;;;14.70;99.90;;;;;;5034928;28;20212;-72
2021/09/04 06:29:31;;;;;;;35.80;18.23;;;14.70;99.90;;;;;;5034825;28;20181;-72
2021/09/04 06:31:57;;;;;;;34.00;20.67;;;14.70;99.90;;;;;;5033633;28;20177;-72
2021/09/04 06:34:23;;;;;;;31.23;19.20;;;14.80;99.90;;;;;;5034026;28;20172;-72
2021/09/04 06:36:48;;;;;;;41.50;21.23;;;14.80;99.90;;;;;;5035246;28;20912;-72
2021/09/04 06:39:14;;;;;;;34.13;20.50;;;14.80;99.90;;;;;;5034122;28;20153;-72
2021/09/04 06:41:39;;;;;;;34.90;21.20;;;14.90;99.90;;;;;;5034169;28;20153;-72
2021/09/04 06:44:05;;;;;;;34.30;21.80;;;14.90;99.90;;;;;;5034186;28;20157;-72
2021/09/04 06:46:32;;;;;;;36.47;22.00;;;14.90;99.90;;;;;;5034209;28;20249;-72
2021/09/04 06:48:59;;;;;;;39.30;21.00;;;14.90;99.90;;;;;;5033948;28;20618;-72
2021/09/04 06:51:25;;;;;;;35.83;20.03;;;15.00;99.90;;;;;;5033935;28;20455;-72
2021/09/04 06:53:50;;;;;;;31.20;19.73;;;15.00;99.90;;;;;;5035205;28;20431;-72
2021/09/04 06:56:16;;;;;;;31.33;19.47;;;15.10;99.90;;;;;;5033797;28;20185;-72
2021/09/04 06:58:41;;;;;;;31.90;18.60;;;15.10;99.90;;;;;;5033881;28;20258;-72
2021/09/04 07:01:07;;;;;;;34.17;19.80;;;15.10;99.90;;;;;;5039237;28;20263;-72
2021/09/04 07:03:33;;;;;;;33.70;18.80;;;15.20;99.90;;;;;;5053329;28;20164;-72
2021/09/04 07:05:58;;;;;;;32.27;19.00;;;15.10;99.90;;;;;;5053636;28;20156;-72
2021/09/04 07:08:24;;;;;;;33.50;18.97;;;15.10;99.90;;;;;;5054130;28;20159;-72
2021/09/04 07:10:49;;;;;;;30.07;17.97;;;15.10;99.90;;;;;;5039624;28;20318;-72
2021/09/04 07:13:15;;;;;;;31.33;18.07;;;15.20;99.90;;;;;;5033506;28;20244;-72
2021/09/04 07:15:41;;;;;;;33.00;20.40;;;15.20;99.90;;;;;;5033895;28;20489;-72
2021/09/04 07:18:07;;;;;;;26.03;16.90;;;15.20;99.90;;;;;;5033593;28;20145;-72
2021/09/04 07:20:32;;;;;;;32.60;17.90;;;15.20;99.90;;;;;;5032731;28;20403;-72
2021/09/04 07:22:58;;;;;;;29.93;18.27;;;15.20;99.90;;;;;;5033275;28;20572;-72
2021/09/04 07:25:23;;;;;;;27.60;16.80;;;15.20;99.90;;;;;;5033232;28;20673;-72
2021/09/04 07:27:49;;;;;;;23.47;15.77;;;15.20;99.90;;;;;;5034888;28;20187;-72
2021/09/04 07:30:16;;;;;;;24.83;16.77;;;15.30;99.90;;;;;;5033225;28;20199;-72
2021/09/04 07:32:42;;;;;;;25.80;15.97;;;15.30;99.90;;;;;;5034434;28;20284;-72
2021/09/04 07:35:08;;;;;;;25.30;17.03;;;15.30;99.90;;;;;;5053042;28;20450;-72
2021/09/04 07:37:34;;;;;;;30.53;17.10;;;15.30;99.90;;;;;;5052908;28;20397;-72
2021/09/04 07:39:59;;;;;;;29.00;18.50;;;15.30;99.90;;;;;;5052994;28;20772;-72
2021/09/04 07:42:25;;;;;;;30.40;17.73;;;15.40;99.90;;;;;;5052972;28;20157;-72
2021/09/04 07:44:51;;;;;;;25.20;15.53;;;15.30;99.90;;;;;;5051631;28;20176;-72
2021/09/04 07:47:16;;;;;;;22.80;14.70;;;15.40;99.90;;;;;;5052829;28;20679;-72
2021/09/04 07:49:42;;;;;;;25.53;18.23;;;15.40;99.90;;;;;;5053073;28;20167;-72
2021/09/04 07:52:08;;;;;;;27.70;16.50;;;15.50;99.90;;;;;;5052969;28;20232;-72
2021/09/04 07:54:33;;;;;;;27.83;16.20;;;15.50;99.90;;;;;;5052661;28;20684;-72
2021/09/04 07:56:59;;;;;;;23.63;15.20;;;15.60;99.90;;;;;;5037385;28;20172;-72
2021/09/04 07:59:24;;;;;;;21.10;14.30;;;15.70;99.90;;;;;;5034245;28;20207;-72
2021/09/04 08:01:50;;;;;;;22.07;15.97;;;15.70;99.90;;;;;;5041965;28;20259;-72
2021/09/04 08:04:15;;;;;;;21.33;13.40;;;15.70;99.90;;;;;;5032718;28;20165;-72
2021/09/04 08:06:41;;;;;;;22.67;13.27;;;15.80;99.90;;;;;;5032573;28;20169;-72
2021/09/04 08:09:06;;;;;;;21.83;14.03;;;15.80;99.90;;;;;;5032662;28;20157;-72
2021/09/04 08:11:32;;;;;;;18.63;13.60;;;15.80;99.90;;;;;;5032467;28;20260;-72
2021/09/04 08:13:58;;;;;;;21.73;13.80;;;15.80;99.90;;;;;;5032806;28;20281;-72
2021/09/04 08:16:23;;;;;;;22.83;13.03;;;15.80;99.90;;;;;;5032352;28;20567;-72
2021/09/04 08:18:49;;;;;;;21.13;13.93;;;15.80;99.90;;;;;;5033786;28;20179;-72
2021/09/04 08:21:15;;;;;;;21.97;13.70;;;15.80;99.90;;;;;;5032742;28;20192;-72
2021/09/04 08:23:40;;;;;;;23.53;14.73;;;15.80;99.90;;;;;;5032416;28;20283;-72
2021/09/04 08:26:06;;;;;;;22.07;14.90;;;15.90;99.90;;;;;;5032659;28;20649;-72
2021/09/04 08:28:31;;;;;;;19.93;13.00;;;16.00;99.90;;;;;;5032730;28;20263;-72
2021/09/04 08:30:57;;;;;;;21.97;13.10;;;16.00;99.90;;;;;;5032433;28;20180;-72
2021/09/04 08:33:22;;;;;;;18.37;12.90;;;16.10;99.90;;;;;;5036497;28;20255;-72
2021/09/04 08:35:48;;;;;;;17.40;13.70;;;16.20;99.90;;;;;;5037491;28;20192;-72
2021/09/04 08:38:13;;;;;;;19.30;11.87;;;16.30;99.90;;;;;;5036271;28;20156;-72
2021/09/04 08:40:42;;;;;;;19.20;12.67;;;16.20;99.90;;;;;;5036387;28;20215;-72
2021/09/04 08:43:08;;;;;;;20.87;12.93;;;16.30;99.90;;;;;;5036726;28;20568;-72
2021/09/04 08:45:34;;;;;;;16.33;10.63;;;16.30;99.90;;;;;;5036267;28;20392;-72
2021/09/04 08:48:01;;;;;;;16.43;11.17;;;16.30;99.90;;;;;;5036296;28;20811;-72
2021/09/04 08:50:27;;;;;;;17.07;12.30;;;16.40;99.90;;;;;;5036220;28;20172;-72
2021/09/04 08:52:54;;;;;;;19.60;12.67;;;16.50;99.90;;;;;;5037178;28;20901;-72
2021/09/04 08:55:20;;;;;;;15.97;11.50;;;16.60;99.90;;;;;;5040672;28;20653;-72
2021/09/04 08:57:48;;;;;;;18.20;12.03;;;16.60;99.90;;;;;;5047787;28;20426;-72
2021/09/04 09:00:26;;;;;;;17.07;11.53;;;16.70;99.90;;;;;;5037593;28;20443;-72
2021/09/04 09:02:51;;;;;;;19.73;11.90;;;16.80;99.90;;;;;;5055944;28;20399;-72
2021/09/04 09:05:17;;;;;;;18.03;11.87;;;16.80;99.90;;;;;;5055965;28;20892;-72
2021/09/04 09:07:44;;;;;;;16.47;11.27;;;16.90;99.90;;;;;;5056040;28;20175;-72
2021/09/04 09:13:06;;;;;;;13.83;10.90;;;17.00;99.90;;;;;;5069960;28;20562;-73
2021/09/04 09:15:38;;;;;;;13.93;10.33;;;17.30;99.90;;;;;;5069933;28;20386;-73
2021/09/04 09:18:07;;;;;;;16.10;10.97;;;17.30;99.90;;;;;;5069830;28;20390;-73
2021/09/04 09:20:34;;;;;;;16.47;11.17;;;17.40;99.90;;;;;;5069759;28;20382;-73
2021/09/04 09:25:48;;;;;;;15.90;10.20;;;17.50;99.90;;;;;;5057124;28;20527;-72
2021/09/04 09:30:56;;;;;;;13.53;9.80;;;17.50;99.90;;;;;;5114506;27;20570;-72
2021/09/04 09:33:23;;;;;;;18.37;11.63;;;17.50;99.90;;;;;;5110245;28;20419;-72
2021/09/04 09:35:52;;;;;;;15.03;11.17;;;17.40;99.90;;;;;;5110488;28;20399;-72
2021/09/04 09:38:20;;;;;;;13.93;10.07;;;17.40;99.90;;;;;;5110457;28;20388;-72
2021/09/04 09:40:46;;;;;;;12.50;9.43;;;17.30;99.90;;;;;;5110811;28;20384;-72
2021/09/04 09:43:15;;;;;;;16.30;11.20;;;17.30;99.90;;;;;;5100955;28;20413;-72
2021/09/04 09:48:25;;;;;;;16.13;11.23;;;17.30;99.90;;;;;;5069845;28;20505;-72
2021/09/04 09:50:52;;;;;;;18.77;11.13;;;17.40;99.90;;;;;;5069742;28;20390;-72
2021/09/04 09:53:19;;;;;;;16.00;11.00;;;17.50;99.90;;;;;;5070009;28;20387;-72
2021/09/04 09:55:46;;;;;;;15.47;11.70;;;17.50;99.90;;;;;;5061236;28;20417;-72
2021/09/04 09:58:13;;;;;;;15.07;9.63;;;17.50;99.90;;;;;;5049808;28;20517;-72
2021/09/04 10:00:40;;;;;;;15.57;11.37;;;17.60;99.90;;;;;;5057482;28;20411;-72
2021/09/04 10:03:07;;;;;;;16.77;11.03;;;17.60;99.90;;;;;;5069313;28;20417;-72
2021/09/04 10:05:34;;;;;;;16.10;12.20;;;17.60;99.90;;;;;;5063991;28;20468;-72
2021/09/04 10:08:00;;;;;;;18.60;11.40;;;17.80;99.90;;;;;;5049899;28;20451;-72
2021/09/04 10:10:31;;;;;;;15.77;11.27;;;17.90;99.90;;;;;;5050045;28;20397;-72
2021/09/04 10:12:58;;;;;;;17.33;11.50;;;18.00;99.90;;;;;;5049361;28;20421;-72
2021/09/04 10:15:29;;;;;;;16.10;11.03;;;18.00;99.90;;;;;;5049231;28;20391;-73
2021/09/04 10:17:57;;;;;;;12.57;10.13;;;18.10;99.90;;;;;;5063529;28;20504;-72
2021/09/04 10:20:25;;;;;;;14.40;11.07;;;18.00;99.90;;;;;;5069261;28;20398;-73
2021/09/04 10:22:54;;;;;;;15.27;11.23;;;18.00;99.90;;;;;;5069818;28;20394;-73
2021/09/04 10:25:20;;;;;;;13.63;11.37;;;18.00;99.90;;;;;;5056676;28;20966;-73
2021/09/04 10:27:48;;;;;;;19.20;12.53;;;18.00;99.90;;;;;;5061916;28;20441;-73
2021/09/04 10:30:38;;;;;;;19.03;12.90;;;18.10;99.90;;;;;;5072293;28;20546;-72
2021/09/04 10:38:28;;;;;;;19.37;13.23;;;18.10;99.90;;;;;;5070428;28;20508;-72
2021/09/04 10:43:53;;;;;;;14.70;11.50;;;18.10;99.90;;;;;;5069925;28;20516;-73
2021/09/04 10:46:20;;;;;;;16.93;12.17;;;18.10;99.90;;;;;;5069909;28;20473;-73
2021/09/04 10:49:04;;;;;;;19.40;12.60;;;18.10;99.90;;;;;;5069537;28;20390;-73
2021/09/04 10:51:48;;;;;;;18.53;11.93;;;18.10;99.90;;;;;;5058527;28;20481;-73
2021/09/04 10:54:53;;;;;;;14.70;10.90;;;18.00;99.90;;;;;;5050025;28;20939;-73
2021/09/04 10:57:19;;;;;;;19.63;13.50;;;18.00;99.90;;;;;;5048624;28;20399;-73
2021/09/04 11:00:06;;;;;;;17.97;12.47;;;18.00;99.90;;;;;;5056389;28;20429;-73
2021/09/04 11:02:41;;;;;;;16.77;11.43;;;18.00;99.90;;;;;;5068391;28;20454;-73
2021/09/04 11:11:06;;;;;;;19.13;12.53;;;18.00;99.90;;;;;;5072063;27;20524;-73
2021/09/04 11:22:01;;;;;;;19.60;13.00;;;18.00;99.90;;;;;;5070115;28;20516;-72
2021/09/04 11:24:30;;;;;;;17.07;11.00;;;18.00;99.90;;;;;;5064826;28;20445;-72
2021/09/04 11:27:00;;;;;;;18.50;12.20;;;18.00;99.90;;;;;;5050230;28;20494;-72
2021/09/04 11:29:26;;;;;;;16.13;12.33;;;18.00;99.90;;;;;;5049664;28;20497;-72
2021/09/04 11:31:55;;;;;;;17.17;11.87;;;18.00;99.90;;;;;;5067058;28;20414;-72
2021/09/04 11:34:33;;;;;;;16.43;12.23;;;18.00;99.90;;;;;;5049892;28;20857;-72
2021/09/04 11:36:58;;;;;;;14.77;10.97;;;18.00;99.90;;;;;;5067782;28;20409;-72
2021/09/04 11:39:36;;;;;;;17.00;11.63;;;18.00;99.90;;;;;;5069636;28;20716;-72
2021/09/04 11:42:01;;;;;;;15.90;11.87;;;18.10;99.90;;;;;;5068749;28;20273;-72
2021/09/04 11:44:27;;;;;;;17.63;12.20;;;18.10;99.90;;;;;;5068485;28;20402;-72
2021/09/04 11:46:52;;;;;;;16.00;12.23;;;18.10;99.90;;;;;;5069379;28;20152;-72
2021/09/04 11:49:18;;;;;;;16.97;11.90;;;18.10;99.90;;;;;;5070480;28;20156;-72
2021/09/04 11:51:59;;;;;;;19.97;11.40;;;18.20;99.90;;;;;;5070063;28;20613;-72
2021/09/04 11:54:28;;;;;;;16.60;10.83;;;18.20;99.90;;;;;;5063874;28;20206;-73
2021/09/04 11:56:54;;;;;;;13.43;10.10;;;18.20;99.90;;;;;;5049168;28;20399;-72
2021/09/04 11:59:19;;;;;;;15.93;10.40;;;18.20;99.90;;;;;;5049455;28;20485;-72
2021/09/04 12:01:46;;;;;;;14.67;9.70;;;18.20;99.90;;;;;;5049224;28;20454;-72
2021/09/04 12:04:12;;;;;;;16.50;11.27;;;18.20;99.90;;;;;;5049529;28;20226;-72
2021/09/04 12:06:47;;;;;;;17.90;10.83;;;18.20;99.90;;;;;;5066594;28;20759;-72
2021/09/04 12:09:14;;;;;;;18.70;10.90;;;18.20;99.90;;;;;;5059300;28;20429;-72
2021/09/04 12:11:41;;;;;;;17.17;11.70;;;18.20;99.90;;;;;;5048870;28;20481;-72
2021/09/04 12:14:07;;;;;;;16.00;10.67;;;18.20;99.90;;;;;;5049122;28;20411;-72
2021/09/04 12:16:33;;;;;;;16.57;10.57;;;18.30;99.90;;;;;;5060947;28;20444;-72
2021/09/04 12:19:15;;;;;;;13.40;10.40;;;18.30;99.90;;;;;;5068004;28;20409;-72
2021/09/04 12:21:51;;;;;;;15.10;10.90;;;18.30;99.90;;;;;;5069035;28;20182;-72
2021/09/04 12:24:17;;;;;;;12.63;9.93;;;18.30;99.90;;;;;;5064215;28;20418;-72
2021/09/04 12:26:51;;;;;;;15.60;10.50;;;18.30;99.90;;;;;;5049570;28;21029;-72
2021/09/04 12:29:16;;;;;;;12.80;10.53;;;18.40;99.90;;;;;;5048853;28;20163;-72
2021/09/04 12:31:44;;;;;;;14.53;11.07;;;18.40;99.90;;;;;;5042642;28;20415;-72
2021/09/04 12:34:21;;;;;;;13.53;10.10;;;18.40;99.90;;;;;;5051945;28;20276;-72
2021/09/04 12:36:47;;;;;;;19.27;12.00;;;18.40;99.90;;;;;;5038956;28;20410;-72
2021/09/04 12:42:08;;;;;;;18.03;12.33;;;18.40;99.90;;;;;;5090240;27;20511;-74
2021/09/04 12:44:40;;;;;;;15.73;11.57;;;18.40;99.90;;;;;;5089979;28;20420;-74
2021/09/04 12:47:06;;;;;;;13.73;9.93;;;18.40;99.90;;;;;;5089813;28;20890;-74
2021/09/04 12:49:34;;;;;;;12.93;9.00;;;18.40;99.90;;;;;;5085604;28;20406;-74
2021/09/04 12:57:24;;;;;;;15.27;11.40;;;18.40;99.90;;;;;;5069998;28;21110;-72
2021/09/04 13:00:09;;;;;;;13.07;10.27;;;18.40;99.90;;;;;;5069193;28;20850;-72
2021/09/04 13:05:15;;;;;;;15.30;11.47;;;18.30;99.90;;;;;;5070305;28;20508;-73
2021/09/04 13:07:50;;;;;;;16.57;11.23;;;18.40;99.90;;;;;;5056524;28;20864;-73
2021/09/04 13:12:53;;;;;;;17.83;12.20;;;18.40;99.90;;;;;;5069871;28;20507;-72